ADDS METAR Data INFO
IDs: Format: Raw Decoded Include TAF

Data at: 0253 UTC 17 Jan 2018

KVQT 170235Z AUTO 02032G39KT 5SM BR OVC009 06/04 A3052 RMK A01
KVQT 170215Z AUTO 02031G41KT 2 1/2SM BR BKN007 OVC011 06/04 A3050 RMK A01 VIS 1 1/4V5
KVQT 170155Z AUTO 02029G35KT 3SM BR OVC008 06/04 A3050 RMK A01
KVQT 170135Z AUTO 03031G37KT 5SM BR OVC008 06/05 A3049 RMK A01
KVQT 170115Z AUTO 04029G35KT 2 1/2SM BR OVC008 06/05 A3047 RMK A01
KVQT 170055Z AUTO 03033KT 1 1/4SM BR OVC007 06/05 A3046 RMK A01 VIS 1/2V4
KVQT 170035Z AUTO 03031KT 2SM BR BKN006 OVC010 07/05 A3045 RMK A01 VIS 1 1/2V3
KVQT 170015Z AUTO 02034KT 1 1/4SM BR OVC007 06/05 A3044 RMK A01
KVQT 162355Z AUTO 02031KT 1SM BR OVC007 07/06 A3044 RMK A01 VIS 1/4V1 3/4
KVQT 162335Z AUTO 03031G36KT 3/4SM BR OVC005 06/06 A3044 RMK A01
KVQT 162315Z AUTO 03031KT 1/2SM BR OVC006 07/06 A3043 RMK A01 VIS 1/4V2
KVQT 162255Z AUTO 03028G34KT 3SM BR OVC007 07/06 A3043 RMK A01
KVQT 162235Z AUTO 03028G34KT 2 1/2SM BR OVC008 07/06 A3042 RMK A01
KVQT 162215Z AUTO 02029KT 3SM BR BKN008 OVC012 08/06 A3041 RMK A01
KVQT 162155Z AUTO 02030KT 6SM BR BKN008 OVC014 08/06 A3041 RMK A01
KVQT 162135Z AUTO 03025G31KT 5SM BR OVC010 08/06 A3041 RMK A01
KVQT 162115Z AUTO 01028G35KT 6SM BR OVC010 08/06 A3041 RMK A01
KVQT 162055Z AUTO 03026KT 5SM BR OVC010 08/06 A3040 RMK A01
KVQT 162035Z AUTO 03027G32KT 5SM BR OVC009 08/07 A3039 RMK A01
KVQT 162015Z AUTO 02028KT 5SM BR BKN009 OVC014 08/06 A3038 RMK A01
KVQT 161955Z AUTO 02030KT 5SM BR OVC010 08/06 A3038 RMK A01
KVQT 161935Z AUTO 02028KT 5SM BR BKN010 OVC014 09/07 A3039 RMK A01
KVQT 161915Z AUTO 02026G33KT 5SM BR OVC011 09/07 A3039 RMK A01
KVQT 161855Z AUTO 02029KT 5SM BR BKN010 OVC014 09/07 A3040 RMK A01
KVQT 161835Z AUTO 02028G35KT 5SM BR OVC012 09/07 A3040 RMK A01
KVQT 161815Z AUTO 02027KT 5SM BR OVC012 10/08 A3041 RMK A01
KVQT 161755Z AUTO 03028KT 6SM HZ OVC014 11/08 A3041 RMK A01
KVQT 161735Z AUTO 02025KT 5SM HZ OVC016 12/09 A3042 RMK A01
KVQT 161715Z AUTO 04024KT 6SM HZ OVC016 13/09 A3042 RMK A01
KVQT 161655Z AUTO 03025KT 7SM OVC014 13/10 A3042 RMK A01
KVQT 161635Z AUTO 04022KT 6SM HZ OVC012 14/12 A3043 RMK A01
KVQT 161615Z AUTO 03021KT 7SM SCT009 BKN014 BKN036 16/14 A3042 RMK A01
KVQT 161555Z AUTO 05014KT 8SM FEW012 17/15 A3041 RMK A01
KVQT 161535Z AUTO 06010KT 9SM FEW010 FEW013 FEW038 18/15 A3040 RMK A01
KVQT 161515Z AUTO 00000KT 10SM FEW037 19/11 A3040 RMK A01
KVQT 161455Z AUTO 00000KT 10SM CLR 19/12 A3040 RMK A01
KVQT 161435Z AUTO 00000KT 10SM CLR 19/12 A3039 RMK A01
KVQT 161415Z AUTO 11004KT 10SM FEW095 19/12 A3038 RMK A01
KVQT 161355Z AUTO 00000KT 10SM FEW095 19/12 A3038 RMK A01
KVQT 161335Z AUTO 00000KT 10SM FEW095 18/12 A3037 RMK A01
KVQT 161315Z AUTO 00000KT 10SM FEW018 FEW095 18/12 A3036 RMK A01
KVQT 161255Z AUTO VRB05G10KT 10SM BKN018 18/12 A3035 RMK A01
KVQT 161235Z AUTO 15011KT 10SM CLR 18/13 A3035 RMK A01
KVQT 161215Z AUTO 15011KT 9SM CLR 18/13 A3034 RMK A01
KVQT 161155Z AUTO 15014KT 10SM CLR 17/14 A3034 RMK A01
KVQT 161135Z AUTO 14014KT 10SM CLR 17/14 A3034 RMK A01
KVQT 161115Z AUTO 14013KT 10SM CLR 17/13 A3034 RMK A01
KVQT 161055Z AUTO 14014KT 10SM CLR 17/14 A3034 RMK A01
KVQT 161035Z AUTO 14013KT 10SM CLR 17/13 A3034 RMK A01
KVQT 161015Z AUTO 12012KT 9SM CLR 17/13 A3034 RMK A01
KVQT 160955Z AUTO 13013KT 10SM FEW019 17/13 A3034 RMK A01
KVQT 160935Z AUTO 13014KT 10SM SCT020 SCT025 17/13 A3034 RMK A01
KVQT 160915Z AUTO 12012KT 10SM SCT021 17/13 A3035 RMK A01
KVQT 160855Z AUTO 12013KT 10SM FEW020 17/12 A3035 RMK A01
KVQT 160835Z AUTO 13012KT 10SM CLR 17/12 A3035 RMK A01
KVQT 160815Z AUTO 12012KT 10SM CLR 17/12 A3035 RMK A01
KVQT 160755Z AUTO 11013KT 10SM CLR 17/12 A3035 RMK A01
KVQT 160735Z AUTO 13012KT 10SM CLR 17/12 A3035 RMK A01
KVQT 160715Z AUTO 12014KT 10SM CLR 16/12 A3035 RMK A01
KVQT 160655Z AUTO 11012KT 10SM CLR 16/12 A3035 RMK A01
KVQT 160635Z AUTO 13014KT 10SM CLR 16/11 A3035 RMK A01
KVQT 160615Z AUTO 12014KT 10SM CLR 16/12 A3035 RMK A01
KVQT 160555Z AUTO 12012KT 10SM CLR 16/11 A3036 RMK A01
KVQT 160535Z AUTO 12012KT 10SM CLR 16/12 A3036 RMK A01
KVQT 160515Z AUTO 11014KT 10SM CLR 16/12 A3036 RMK A01
KVQT 160455Z AUTO 12013KT FEW027 SCT033 16/12 A3037 RMK A01
KVQT 160435Z AUTO 12014KT 9SM SCT026 BKN033 16/12 A3037 RMK A01
KVQT 160415Z AUTO 12013KT 10SM FEW024 SCT046 16/12 A3037 RMK A01
KVQT 160355Z AUTO 12013KT 10SM FEW034 SCT043 BKN048 16/11 A3036 RMK A01
KVQT 160335Z AUTO 10013KT 10SM FEW024 BKN034 OVC050 16/11 A3036 RMK A01
KVQT 160315Z AUTO 10.41666710KT 10SM SCT024 SCT030 BKN048 16/11 A3036 RMK A01
KVQT 160255Z AUTO 10011KT 10SM FEW028 BKN046 16/12 A3036 RMK A01
KVQT 160235Z AUTO 12011KT 10SM FEW022 FEW032 BKN046 16/12 A3035 RMK A01
KVQT 160215Z AUTO 11009KT 10SM SCT033 BKN042 OVC047 16/11 A3035 RMK A01
KVQT 160155Z AUTO 11009KT 10SM FEW030 FEW034 BKN043 16/11 A3034 RMK A01
KVQT 160135Z AUTO 12011KT 10SM SCT030 BKN035 BKN043 16/11 A3034 RMK A01
KVQT 160115Z AUTO 10010KT 10SM FEW026 BKN034 OVC042 16/11 A3033 RMK A01
KVQT 160055Z AUTO 10007KT 10SM BKN040 BKN045 16/11 A3033 RMK A01
KVQT 160035Z AUTO 12007KT 10SM OVC041 17/08 A3033 RMK A01
KVQT 160015Z AUTO 12005KT 10SM FEW034 BKN040 16/08 A3033 RMK A01
KVQT 152355Z AUTO 14004KT 10SM FEW025 FEW041 17/08 A3033 RMK A01
KVQT 152335Z AUTO 13005KT 10SM FEW042 16/08 A3033 RMK A01
KVQT 152315Z AUTO VRB04KT 10SM FEW041 17/08 A3033 RMK A01
KVQT 152255Z AUTO 00000KT 10SM CLR 17/07 A3033 RMK A01
KVQT 152235Z AUTO VRB05KT 10SM CLR 17/07 A3033 RMK A01
KVQT 152215Z AUTO 14005KT 10SM CLR 17/08 A3034 RMK A01
KVQT 152155Z AUTO VRB04KT 10SM FEW049 17/08 A3034 RMK A01
KVQT 152135Z AUTO 12004KT 10SM SCT048 18/08 A3034 RMK A01
KVQT 152115Z AUTO 15006KT 10SM FEW040 BKN047 18/08 A3035 RMK A01
KVQT 152055Z AUTO 00000KT 10SM BKN047 17/08 A3035 RMK A01
KVQT 152035Z AUTO VRB03KT 10SM FEW037 OVC047 17/08 A3035 RMK A01
KVQT 152015Z AUTO 00000KT 10SM BKN037 OVC045 17/08 A3035 RMK A01
KVQT 151955Z AUTO 00000KT 10SM BKN041 17/08 A3035 RMK A01
KVQT 151935Z AUTO 00000KT 10SM SCT038 SCT044 17/08 A3036 RMK A01
KVQT 151915Z AUTO 00000KT 10SM OVC038 17/08 A3036 RMK A01
KVQT 151855Z AUTO VRB04KT 10SM OVC038 17/08 A3036 RMK A01
KVQT 151835Z AUTO 12007KT 10SM BKN036 17/08 A3037 RMK A01
KVQT 151815Z AUTO 13006KT 10SM BKN035 17/08 A3038 RMK A01
KVQT 151755Z AUTO 16006KT 10SM SCT035 18/07 A3040 RMK A01
KVQT 151735Z AUTO 00000G10KT 10SM BKN034 17/08 A3040 RMK A01
KVQT 151715Z AUTO 14007KT 10SM SCT033 17/08 A3041 RMK A01
KVQT 151655Z AUTO VRB06G12KT 10SM FEW034 17/08 A3042 RMK A01
KVQT 151635Z AUTO 16005KT 10SM SCT034 17/07 A3043 RMK A01
KVQT 151615Z AUTO 15009KT 10SM FEW034 17/07 A3043 RMK A01
KVQT 151555Z AUTO VRB05KT 10SM CLR 16/07 A3043 RMK A01
KVQT 151535Z AUTO 15007KT 10SM CLR 16/07 A3043 RMK A01
KVQT 151515Z AUTO VRB03KT 10SM CLR 16/07 A3043 RMK A01
KVQT 151455Z AUTO 00000KT 10SM FEW033 16/07 A3042 RMK A01